createdAt,value
2018-11-04T00:01:28.682Z,88.07
2018-11-04T00:03:57.369Z,90.23
2018-11-04T00:06:26.100Z,85.50
2018-11-04T00:08:54.828Z,85.13
2018-11-04T00:17:23.780Z,82.97
2018-11-04T00:19:52.526Z,85.77
2018-11-04T00:22:21.256Z,83.00
2018-11-04T00:24:49.979Z,84.57
2018-11-04T00:27:18.784Z,84.93
2018-11-04T00:29:47.454Z,84.00
2018-11-04T00:32:16.168Z,85.90
2018-11-04T00:34:44.916Z,86.63
2018-11-04T00:37:13.640Z,84.77
2018-11-04T00:39:42.380Z,85.07
2018-11-04T00:42:11.136Z,84.60
2018-11-04T00:44:39.860Z,87.67
2018-11-04T00:47:08.633Z,84.97
2018-11-04T00:49:37.934Z,85.03
2018-11-04T00:52:06.648Z,84.50
2018-11-04T00:54:35.389Z,84.33
2018-11-04T00:57:04.360Z,83.37
2018-11-04T00:59:33.092Z,84.37
2018-11-04T01:02:01.829Z,86.23
2018-11-04T01:04:30.564Z,83.17
2018-11-04T01:06:59.300Z,84.60
2018-11-04T01:09:28.036Z,87.03
2018-11-04T01:11:56.778Z,83.40
2018-11-04T01:14:25.512Z,84.37
2018-11-04T01:16:54.250Z,84.87
2018-11-04T01:19:22.988Z,86.97
2018-11-04T01:21:51.723Z,86.63
2018-11-04T01:24:20.494Z,89.83
2018-11-04T01:26:49.212Z,108.43
2018-11-04T01:29:17.985Z,87.67
2018-11-04T01:31:46.841Z,82.30
2018-11-04T01:34:15.721Z,84.57
2018-11-04T01:36:44.457Z,85.90
2018-11-04T01:39:13.223Z,83.60
2018-11-04T01:41:41.962Z,84.83
2018-11-04T01:44:11.504Z,85.93
2018-11-04T01:46:41.414Z,85.50
2018-11-04T01:49:10.299Z,88.37
2018-11-04T01:51:39.038Z,86.20
2018-11-04T01:54:07.772Z,84.20
2018-11-04T01:56:36.525Z,86.10
2018-11-04T01:59:05.604Z,86.00
2018-11-04T02:01:34.352Z,83.43
2018-11-04T02:04:03.080Z,83.77
2018-11-04T02:06:31.816Z,83.37
2018-11-04T02:09:00.545Z,83.30
2018-11-04T02:11:29.284Z,85.77
2018-11-04T02:13:58.016Z,84.03
2018-11-04T02:16:26.752Z,82.53
2018-11-04T02:18:55.488Z,82.17
2018-11-04T02:21:24.219Z,84.80
2018-11-04T02:23:52.976Z,89.03
2018-11-04T02:26:21.824Z,84.07
2018-11-04T02:28:50.559Z,83.50
2018-11-04T02:31:19.284Z,89.57
2018-11-04T02:33:48.021Z,85.93
2018-11-04T02:36:16.981Z,82.30
2018-11-04T02:38:45.718Z,82.13
2018-11-04T02:41:14.439Z,82.27
2018-11-04T02:43:43.177Z,83.53
2018-11-04T02:46:11.909Z,83.53
2018-11-04T02:48:40.796Z,86.53
2018-11-04T02:51:09.532Z,83.33
2018-11-04T02:53:38.268Z,86.70
2018-11-04T02:56:06.992Z,88.27
2018-11-04T02:58:35.732Z,84.93
2018-11-04T03:01:04.641Z,82.53
2018-11-04T03:03:33.367Z,82.27
2018-11-04T03:06:02.130Z,91.70
2018-11-04T03:08:30.864Z,84.80
2018-11-04T03:10:59.601Z,84.53
2018-11-04T03:13:28.329Z,83.97
2018-11-04T03:15:57.092Z,81.90
2018-11-04T03:18:25.853Z,81.33
2018-11-04T03:20:54.589Z,83.70
2018-11-04T03:23:23.323Z,84.33
2018-11-04T03:25:52.077Z,81.10
2018-11-04T03:28:20.809Z,85.93
2018-11-04T03:30:49.541Z,82.37
2018-11-04T03:33:18.276Z,82.93
2018-11-04T03:35:47.013Z,82.10
2018-11-04T03:38:15.741Z,83.83
2018-11-04T03:40:44.482Z,83.30
2018-11-04T03:43:13.213Z,82.97
2018-11-04T03:45:41.954Z,81.23
2018-11-04T03:48:10.684Z,85.43
2018-11-04T03:50:39.411Z,80.83
2018-11-04T03:53:08.332Z,82.43
2018-11-04T03:55:37.813Z,81.90
2018-11-04T03:58:06.536Z,81.77
2018-11-04T04:00:35.272Z,82.30
2018-11-04T04:03:04.337Z,86.03
2018-11-04T04:05:33.077Z,82.00
2018-11-04T04:08:01.810Z,86.90
2018-11-04T04:10:30.550Z,84.80
2018-11-04T04:12:59.329Z,84.50
2018-11-04T04:15:28.061Z,86.77
2018-11-04T04:17:56.801Z,85.43
2018-11-04T04:20:25.532Z,83.20
2018-11-04T04:22:54.273Z,86.03
2018-11-04T04:25:23.009Z,87.40
2018-11-04T04:27:51.736Z,91.00
2018-11-04T04:30:20.456Z,89.73
2018-11-04T04:32:49.183Z,99.40
2018-11-04T04:35:18.033Z,86.60
2018-11-04T04:37:46.764Z,79.67
2018-11-04T04:40:15.488Z,84.00
2018-11-04T04:42:44.233Z,81.93
2018-11-04T04:45:12.992Z,82.07
2018-11-04T04:47:41.728Z,84.07
2018-11-04T04:50:10.454Z,82.43
2018-11-04T04:52:39.188Z,83.33
2018-11-04T04:55:07.912Z,81.63
2018-11-04T04:57:36.664Z,81.93
2018-11-04T05:00:06.682Z,84.33
2018-11-04T05:02:35.423Z,83.60
2018-11-04T05:05:04.258Z,82.70
2018-11-04T05:07:32.984Z,82.40
2018-11-04T05:10:01.712Z,81.43
2018-11-04T05:12:30.444Z,83.83
2018-11-04T05:14:59.172Z,85.50
2018-11-04T05:17:27.901Z,81.43
2018-11-04T05:19:56.633Z,89.47
2018-11-04T05:22:25.360Z,81.17
2018-11-04T05:24:54.118Z,81.80
2018-11-04T05:27:22.853Z,81.90
2018-11-04T05:29:51.579Z,80.63
2018-11-04T05:32:20.317Z,85.80
2018-11-04T05:34:49.048Z,83.27
2018-11-04T05:37:17.804Z,80.30
2018-11-04T05:39:46.540Z,82.70
2018-11-04T05:42:15.272Z,86.00
2018-11-04T05:44:44.016Z,82.33
2018-11-04T05:47:12.735Z,81.10
2018-11-04T05:49:41.480Z,82.60
2018-11-04T05:52:10.219Z,83.87
2018-11-04T05:54:38.948Z,81.17
2018-11-04T05:57:07.747Z,81.83
2018-11-04T05:59:36.484Z,83.03
2018-11-04T06:02:05.737Z,82.70
2018-11-04T06:04:34.459Z,83.13
2018-11-04T06:07:03.216Z,81.80
2018-11-04T06:09:31.951Z,82.57
2018-11-04T06:12:00.683Z,85.40
2018-11-04T06:14:29.413Z,84.93
2018-11-04T06:16:58.444Z,85.57
2018-11-04T06:19:27.261Z,81.50
2018-11-04T06:21:55.937Z,86.43
2018-11-04T06:24:24.698Z,85.53
2018-11-04T06:26:54.363Z,82.10
2018-11-04T06:29:24.851Z,82.60
2018-11-04T06:31:53.663Z,84.57
2018-11-04T06:34:22.444Z,87.93
2018-11-04T06:36:51.124Z,87.40
2018-11-04T06:39:19.846Z,81.37
2018-11-04T06:41:48.593Z,83.13
2018-11-04T06:44:17.329Z,83.73
2018-11-04T06:46:46.053Z,84.73
2018-11-04T06:49:14.780Z,89.27
2018-11-04T06:51:44.464Z,85.07
2018-11-04T06:54:13.200Z,85.87
2018-11-04T06:56:41.936Z,86.90
2018-11-04T06:59:10.659Z,85.67
2018-11-04T07:01:39.432Z,93.37
2018-11-04T07:04:17.290Z,87.40
2018-11-04T07:06:46.062Z,87.90
2018-11-04T07:09:15.411Z,87.30
2018-11-04T07:11:44.812Z,86.50
2018-11-04T07:14:13.547Z,85.93
2018-11-04T07:16:42.668Z,89.40
2018-11-04T07:19:11.435Z,87.43
2018-11-04T07:21:40.169Z,88.50
2018-11-04T07:24:08.908Z,97.23
2018-11-04T07:26:37.956Z,87.23
2018-11-04T07:29:07.469Z,84.97
2018-11-04T07:31:36.352Z,89.20
2018-11-04T07:34:05.728Z,87.43
2018-11-04T07:36:34.549Z,86.50
2018-11-04T07:39:04.304Z,87.37
2018-11-04T07:41:33.036Z,89.93
2018-11-04T07:44:01.832Z,86.23
2018-11-04T07:46:30.532Z,87.77
2018-11-04T07:48:59.254Z,92.13
2018-11-04T07:51:28.057Z,86.97
2018-11-04T07:53:56.723Z,92.27
2018-11-04T07:56:25.449Z,88.67
2018-11-04T07:58:54.184Z,88.80
2018-11-04T08:01:22.919Z,90.20
2018-11-04T08:03:51.730Z,89.60
2018-11-04T08:06:20.468Z,90.03
2018-11-04T08:08:49.300Z,89.40
2018-11-04T08:11:18.208Z,92.00
2018-11-04T08:13:46.932Z,95.00
2018-11-04T08:16:15.668Z,88.90
2018-11-04T08:18:44.392Z,89.00
2018-11-04T08:21:13.155Z,91.03
2018-11-04T08:23:41.868Z,96.57
2018-11-04T08:26:10.600Z,88.53
2018-11-04T08:28:39.337Z,88.63
2018-11-04T08:31:08.061Z,92.83
2018-11-04T08:33:36.896Z,92.30
2018-11-04T08:36:05.648Z,108.83
2018-11-04T08:38:34.388Z,116.47
2018-11-04T08:41:03.124Z,111.07
2018-11-04T08:43:31.860Z,89.70
2018-11-04T08:46:00.593Z,101.27
2018-11-04T08:48:29.328Z,102.23
2018-11-04T08:50:58.065Z,91.67
2018-11-04T08:53:26.820Z,93.40
2018-11-04T08:55:55.553Z,94.60
2018-11-04T08:58:24.289Z,94.43
2018-11-04T09:00:53.017Z,98.23
2018-11-04T09:03:21.777Z,90.20
2018-11-04T09:05:50.496Z,93.10
2018-11-04T09:08:19.435Z,93.03
2018-11-04T09:10:48.156Z,88.97
2018-11-04T09:13:16.913Z,90.97
2018-11-04T09:15:46.142Z,90.50
2018-11-04T09:18:14.864Z,87.20
2018-11-04T09:20:43.592Z,90.30
2018-11-04T09:23:12.332Z,94.60
2018-11-04T09:25:41.068Z,93.20
2018-11-04T09:28:09.792Z,89.63
2018-11-04T09:30:38.537Z,91.47
2018-11-04T09:33:07.268Z,90.23
2018-11-04T09:35:36.135Z,88.10
2018-11-04T09:38:04.842Z,89.60
2018-11-04T09:40:33.592Z,91.10
2018-11-04T09:43:02.323Z,90.57
2018-11-04T09:45:31.149Z,91.57
2018-11-04T09:47:59.876Z,90.63
2018-11-04T09:50:28.608Z,91.03
2018-11-04T09:52:57.360Z,89.90
2018-11-04T09:55:26.072Z,93.53
2018-11-04T09:57:54.805Z,93.70
2018-11-04T10:00:23.537Z,93.03
2018-11-04T10:02:52.299Z,91.47
2018-11-04T10:05:21.037Z,93.57
2018-11-04T10:07:49.767Z,92.67
2018-11-04T10:10:18.513Z,95.60
2018-11-04T10:12:47.240Z,90.40
2018-11-04T10:15:15.979Z,92.73
2018-11-04T10:17:44.716Z,92.30
2018-11-04T10:20:13.841Z,91.67
2018-11-04T10:22:42.575Z,91.53
2018-11-04T10:25:12.484Z,93.07
2018-11-04T10:27:41.756Z,95.27
2018-11-04T10:30:12.978Z,96.87
2018-11-04T10:32:41.663Z,91.90
2018-11-04T10:35:10.913Z,91.47
2018-11-04T10:37:40.444Z,89.60
2018-11-04T10:40:10.236Z,92.30
2018-11-04T10:42:38.980Z,93.87
2018-11-04T10:45:08.856Z,92.63
2018-11-04T10:47:37.727Z,93.23
2018-11-04T10:50:08.456Z,95.77
2018-11-04T10:52:37.196Z,98.40
2018-11-04T10:55:06.581Z,96.37
2018-11-04T10:57:35.373Z,98.13
2018-11-04T11:00:04.737Z,97.37
2018-11-04T11:02:33.480Z,97.33
2018-11-04T11:05:02.217Z,99.23
2018-11-04T11:07:30.948Z,99.37
2018-11-04T11:09:59.676Z,96.73
2018-11-04T11:12:28.423Z,102.93
2018-11-04T11:14:57.152Z,100.17
2018-11-04T11:17:25.883Z,102.47
2018-11-04T11:19:54.625Z,98.47
2018-11-04T11:22:23.418Z,98.97
2018-11-04T11:24:52.152Z,98.73
2018-11-04T11:27:20.880Z,98.10
2018-11-04T11:29:49.611Z,96.67
2018-11-04T11:32:18.377Z,97.73
2018-11-04T11:34:47.121Z,99.10
2018-11-04T11:37:15.893Z,100.63
2018-11-04T11:39:44.592Z,98.23
2018-11-04T11:42:13.320Z,97.83
2018-11-04T11:44:42.113Z,98.03
2018-11-04T11:47:10.788Z,98.97
2018-11-04T11:49:39.535Z,98.83
2018-11-04T11:52:08.392Z,98.67
2018-11-04T11:54:37.144Z,100.63
2018-11-04T11:57:05.924Z,98.90
2018-11-04T11:59:34.660Z,99.17
2018-11-04T12:02:03.444Z,100.13
2018-11-04T12:04:32.168Z,97.90
2018-11-04T12:07:00.905Z,99.73
2018-11-04T12:09:29.643Z,101.10
2018-11-04T12:11:58.404Z,98.00
2018-11-04T12:14:27.136Z,97.43
2018-11-04T12:16:55.873Z,97.73
2018-11-04T12:19:24.623Z,97.77
2018-11-04T12:21:53.392Z,98.60
2018-11-04T12:24:22.145Z,97.40
2018-11-04T12:26:50.877Z,98.30
2018-11-04T12:29:19.612Z,99.27
2018-11-04T12:31:48.347Z,98.97
2018-11-04T12:34:17.089Z,98.20
2018-11-04T12:36:45.807Z,98.30
2018-11-04T12:39:14.544Z,100.43
2018-11-04T12:41:43.436Z,100.27
2018-11-04T12:44:12.173Z,98.07
2018-11-04T12:46:40.910Z,98.07
2018-11-04T12:49:09.644Z,100.50
2018-11-04T12:51:38.380Z,97.20
2018-11-04T12:54:07.192Z,98.60
2018-11-04T12:56:35.925Z,98.33
2018-11-04T12:59:08.592Z,98.97
2018-11-04T13:01:37.902Z,98.73
2018-11-04T13:04:06.640Z,99.40
2018-11-04T13:06:35.387Z,106.77
2018-11-04T13:09:05.502Z,99.40
2018-11-04T13:11:34.312Z,98.13
2018-11-04T13:14:03.008Z,101.23
2018-11-04T13:16:31.773Z,99.70
2018-11-04T13:19:00.511Z,101.37
2018-11-04T13:21:29.405Z,99.50
2018-11-04T13:23:58.387Z,100.47
2018-11-04T13:26:27.117Z,98.70
2018-11-04T13:28:55.844Z,98.70
2018-11-04T13:31:24.592Z,103.30
2018-11-04T13:33:53.344Z,100.43
2018-11-04T13:36:22.093Z,101.37
2018-11-04T13:38:50.829Z,102.17
2018-11-04T13:41:19.560Z,98.00
2018-11-04T13:43:48.357Z,99.43
2018-11-04T13:46:17.033Z,98.83
2018-11-04T13:48:45.772Z,100.50
2018-11-04T13:51:14.508Z,110.33
2018-11-04T13:53:43.252Z,102.43
2018-11-04T13:56:11.992Z,101.33
2018-11-04T13:58:40.731Z,100.73
2018-11-04T14:01:09.465Z,100.27
2018-11-04T14:03:38.280Z,99.70
2018-11-04T14:06:07.016Z,100.50
2018-11-04T14:08:36.396Z,98.63
2018-11-04T14:11:05.591Z,100.40
2018-11-04T14:13:34.466Z,100.83
2018-11-04T14:16:03.058Z,98.57
2018-11-04T14:18:31.804Z,101.43
2018-11-04T14:21:00.540Z,98.23
2018-11-04T14:23:29.293Z,98.70
2018-11-04T14:25:58.034Z,105.43
2018-11-04T14:28:26.772Z,103.47
2018-11-04T14:30:55.595Z,101.20
2018-11-04T14:33:24.363Z,98.80
2018-11-04T14:35:53.111Z,100.37
2018-11-04T14:38:21.841Z,99.53
2018-11-04T14:40:50.575Z,100.23
2018-11-04T14:43:19.313Z,99.73
2018-11-04T14:45:48.081Z,100.00
2018-11-04T14:48:16.788Z,118.20
2018-11-04T14:50:45.530Z,101.00
2018-11-04T14:53:14.259Z,99.67
2018-11-04T14:55:42.993Z,99.97
2018-11-04T14:58:11.792Z,97.97
2018-11-04T15:00:40.537Z,99.27
2018-11-04T15:03:09.361Z,100.17
2018-11-04T15:05:38.157Z,99.67
2018-11-04T15:08:06.836Z,99.53
2018-11-04T15:10:35.572Z,99.07
2018-11-04T15:13:04.311Z,103.13
2018-11-04T15:15:33.100Z,100.33
2018-11-04T15:18:01.842Z,99.97
2018-11-04T15:20:30.576Z,99.83
2018-11-04T15:22:59.335Z,99.33
2018-11-04T15:25:28.058Z,100.43
2018-11-04T15:27:56.828Z,100.50
2018-11-04T15:30:25.572Z,99.90
2018-11-04T15:32:54.309Z,101.83
2018-11-04T15:35:23.040Z,99.80
2018-11-04T15:37:51.785Z,99.33
2018-11-04T15:40:20.657Z,100.40
2018-11-04T15:42:49.376Z,99.50
2018-11-04T15:45:18.200Z,101.20
2018-11-04T15:47:46.957Z,101.20
2018-11-04T15:50:17.020Z,101.93
2018-11-04T15:52:46.017Z,98.77
2018-11-04T15:55:14.764Z,100.30
2018-11-04T15:57:43.512Z,99.57
2018-11-04T16:00:13.632Z,101.03
2018-11-04T16:02:42.429Z,100.87
2018-11-04T16:05:11.664Z,99.50
2018-11-04T16:07:40.331Z,100.63
2018-11-04T16:10:09.808Z,99.43
2018-11-04T16:12:39.021Z,99.53
2018-11-04T16:15:09.420Z,99.90
2018-11-04T16:17:38.160Z,100.57
2018-11-04T16:20:08.176Z,101.80
2018-11-04T16:22:37.321Z,100.03
2018-11-04T16:25:06.572Z,100.07
2018-11-04T16:27:35.309Z,101.43
2018-11-04T16:30:04.973Z,101.07
2018-11-04T16:32:33.720Z,105.27
2018-11-04T16:35:06.380Z,105.37
2018-11-04T16:37:35.474Z,99.17
2018-11-04T16:40:05.047Z,100.00
2018-11-04T16:42:33.772Z,100.00
2018-11-04T16:45:02.669Z,101.60
2018-11-04T16:47:31.422Z,102.60
2018-11-04T16:50:00.182Z,101.23
2018-11-04T16:52:28.896Z,102.83
2018-11-04T16:54:57.641Z,101.30
2018-11-04T16:57:26.387Z,100.93
2018-11-04T16:59:55.140Z,100.97
2018-11-04T17:02:23.872Z,100.13
2018-11-04T17:04:52.677Z,100.57
2018-11-04T17:07:21.380Z,100.63
2018-11-04T17:09:50.119Z,104.73
2018-11-04T17:12:18.856Z,102.40
2018-11-04T17:14:47.604Z,100.77
2018-11-04T17:17:16.344Z,103.07
2018-11-04T17:19:45.089Z,100.23
2018-11-04T17:22:13.875Z,101.07
2018-11-04T17:24:42.661Z,101.80
2018-11-04T17:27:11.411Z,101.03
2018-11-04T17:29:40.188Z,101.13
2018-11-04T17:32:08.925Z,100.67
2018-11-04T17:34:37.815Z,99.90
2018-11-04T17:37:07.342Z,101.03
2018-11-04T17:39:36.167Z,100.53
2018-11-04T17:42:05.389Z,100.27
2018-11-04T17:44:34.343Z,100.77
2018-11-04T17:47:03.085Z,99.93
2018-11-04T17:49:31.984Z,100.50
2018-11-04T17:52:00.727Z,100.53
2018-11-04T17:54:29.492Z,101.13
2018-11-04T17:56:58.245Z,100.53
2018-11-04T17:59:26.990Z,100.70
2018-11-04T18:01:56.082Z,102.23
2018-11-04T18:04:24.829Z,101.20
2018-11-04T18:06:53.576Z,99.50
2018-11-04T18:09:22.324Z,100.57
2018-11-04T18:11:51.064Z,99.87
2018-11-04T18:14:19.797Z,103.93
2018-11-04T18:16:48.570Z,102.23
2018-11-04T18:19:17.295Z,100.50
2018-11-04T18:21:46.028Z,101.43
2018-11-04T18:24:14.784Z,101.37
2018-11-04T18:26:44.753Z,100.93
2018-11-04T18:29:13.521Z,100.53
2018-11-04T18:31:42.258Z,100.57
2018-11-04T18:34:10.996Z,103.13
2018-11-04T18:36:39.728Z,101.10
2018-11-04T18:39:09.305Z,105.57
2018-11-04T18:41:38.591Z,101.47
2018-11-04T18:44:07.907Z,102.10
2018-11-04T18:46:36.559Z,102.00
2018-11-04T18:49:05.649Z,102.23
2018-11-04T18:51:34.404Z,104.13
2018-11-04T18:54:03.148Z,103.00
2018-11-04T18:56:31.884Z,102.47
2018-11-04T18:59:00.658Z,101.43
2018-11-04T19:01:29.383Z,102.20
2018-11-04T19:03:58.121Z,99.83
2018-11-04T19:06:26.853Z,101.20
2018-11-04T19:08:55.601Z,102.03
2018-11-04T19:11:24.498Z,100.77
2018-11-04T19:13:53.096Z,101.00
2018-11-04T19:16:21.849Z,104.27
2018-11-04T19:18:50.708Z,100.93
2018-11-04T19:21:19.325Z,100.97
2018-11-04T19:23:48.084Z,100.37
2018-11-04T19:26:16.852Z,102.30
2018-11-04T19:28:45.583Z,100.70
2018-11-04T19:31:14.380Z,101.23
2018-11-04T19:33:43.063Z,100.33
2018-11-04T19:36:11.817Z,101.77
2018-11-04T19:38:40.548Z,101.57
2018-11-04T19:41:09.936Z,101.80
2018-11-04T19:43:38.673Z,102.10
2018-11-04T19:46:07.507Z,102.07
2018-11-04T19:48:36.260Z,102.33
2018-11-04T19:51:05.291Z,101.00
2018-11-04T19:53:33.973Z,102.90
2018-11-04T19:56:02.727Z,100.60
2018-11-04T19:58:31.475Z,100.20
2018-11-04T20:01:00.216Z,101.87
2018-11-04T20:03:28.940Z,105.30
2018-11-04T20:05:57.718Z,101.30
2018-11-04T20:08:26.451Z,100.77
2018-11-04T20:10:55.186Z,101.13
2018-11-04T20:14:29.786Z,100.90
2018-11-04T20:16:58.564Z,102.53
2018-11-04T20:19:32.954Z,102.07
2018-11-04T20:22:01.540Z,100.40
2018-11-04T20:24:35.512Z,103.50
2018-11-04T20:27:04.256Z,104.67
2018-11-04T20:29:32.996Z,101.73
2018-11-04T20:32:07.110Z,102.00
2018-11-04T20:34:35.840Z,101.77
2018-11-04T20:37:04.590Z,100.53
2018-11-04T20:39:38.789Z,102.73
2018-11-04T20:42:07.530Z,101.70
2018-11-04T20:44:41.511Z,102.13
2018-11-04T20:47:10.252Z,100.73
2018-11-04T20:49:44.499Z,101.53
2018-11-04T20:52:13.273Z,103.00
2018-11-04T20:54:42.016Z,101.20
2018-11-04T20:57:16.016Z,101.63
2018-11-04T20:59:44.724Z,101.73
2018-11-04T21:02:13.597Z,102.07
2018-11-04T21:04:42.292Z,101.50
2018-11-04T21:07:11.113Z,101.83
2018-11-04T21:09:39.833Z,100.93
2018-11-04T21:12:08.556Z,102.37
2018-11-04T21:14:37.288Z,100.93
2018-11-04T21:17:06.235Z,103.67
2018-11-04T21:19:34.952Z,101.23
2018-11-04T21:22:03.697Z,105.03
2018-11-04T21:24:32.431Z,102.03
2018-11-04T21:27:01.168Z,100.43
2018-11-04T21:29:30.300Z,105.47
2018-11-04T21:31:58.640Z,104.90
2018-11-04T21:34:27.392Z,100.80
2018-11-04T21:36:56.125Z,102.80
2018-11-04T21:39:24.865Z,101.23
2018-11-04T21:41:53.600Z,102.57
2018-11-04T21:44:22.469Z,101.40
2018-11-04T21:46:51.092Z,102.43
2018-11-04T21:49:20.090Z,101.47
2018-11-04T21:51:48.777Z,101.73
2018-11-04T21:54:17.516Z,102.50
2018-11-04T21:56:46.245Z,101.80
2018-11-04T21:59:14.989Z,101.30
2018-11-04T22:01:43.741Z,100.97
2018-11-04T22:04:12.534Z,100.83
2018-11-04T22:06:41.223Z,101.80
2018-11-04T22:09:10.573Z,102.27
2018-11-04T22:11:39.429Z,101.63
2018-11-04T22:14:08.176Z,104.53
2018-11-04T22:16:36.908Z,101.13
2018-11-04T22:19:05.689Z,104.17
2018-11-04T22:21:34.639Z,102.80
2018-11-04T22:24:03.384Z,101.67
2018-11-04T22:26:32.136Z,101.90
2018-11-04T22:29:00.892Z,101.23
2018-11-04T22:31:46.819Z,101.30
2018-11-04T22:34:16.152Z,101.40
2018-11-04T22:36:44.922Z,104.10
2018-11-04T22:39:13.648Z,101.70
2018-11-04T22:41:42.383Z,101.57
2018-11-04T22:44:11.125Z,103.97
2018-11-04T22:46:40.321Z,101.43
2018-11-04T22:49:09.060Z,101.67
2018-11-04T22:51:38.000Z,102.10
2018-11-04T22:54:06.744Z,102.13
2018-11-04T22:56:35.497Z,103.67
2018-11-04T22:59:04.537Z,101.43
2018-11-04T23:01:33.335Z,102.43
2018-11-04T23:04:02.111Z,101.80
2018-11-04T23:06:30.744Z,102.17
2018-11-04T23:08:59.489Z,102.87
2018-11-04T23:11:28.224Z,101.80
2018-11-04T23:13:56.975Z,102.10
2018-11-04T23:16:25.741Z,101.70
2018-11-04T23:18:54.476Z,102.00
2018-11-04T23:21:23.413Z,101.77
2018-11-04T23:23:52.152Z,101.07
2018-11-04T23:26:20.893Z,103.37
2018-11-04T23:28:49.634Z,101.30
2018-11-04T23:31:18.900Z,102.17
2018-11-04T23:33:47.639Z,100.60
2018-11-04T23:36:16.373Z,100.83
2018-11-04T23:38:45.110Z,100.53
2018-11-04T23:41:13.836Z,100.63
2018-11-04T23:43:42.610Z,101.07
2018-11-04T23:46:11.349Z,101.77
2018-11-04T23:48:40.084Z,101.17
2018-11-04T23:51:08.825Z,102.20
2018-11-04T23:53:37.557Z,101.33
2018-11-04T23:56:06.436Z,100.73
2018-11-04T23:58:35.166Z,101.63
